Terminal Aerodrome Forecast
Issued by NWS

Home | Current Version | Previous Version | Text Only | Print | Product List | Glossary Off
Versions: 1 2 3 4 5 6 7 8 9 10 11 12 13 14 15

000
FTUS43 KICT 232000 AAA
TAFHUT
TAF AMD
KHUT 232048Z 2321/2418 02011G18KT P6SM SCT250
     FM240000 10005KT P6SM SCT250
     FM240900 13006KT 5SM BR SKC
     FM241500 16015G21KT P6SM SKC=

USA.gov is the U.S. government's official web portal to all federal, state and local government web resources and services.